Time;durP1;ratioP1;P1;durP2;ratioP2;P2;SDS_P1;SDS_P2;PMS_P1;PMS_P2;Temp;Humidity;BMP_temperature;BMP_pressure;BME280_temperature;BME280_humidity;BME280_pressure;Samples;Min_cycle;Max_cycle;Signal;HPM_P1;HPM_P2
2022/11/22 00:01:10;;;;;;;20.42;13.20;;;4.60;99.90;;;;;;4917845;29;20040;-83
2022/11/22 00:03:35;;;;;;;21.75;13.70;;;4.60;99.90;;;;;;4916543;29;20056;-82
2022/11/22 00:06:01;;;;;;;21.73;12.88;;;4.60;99.90;;;;;;4917322;29;20110;-83
2022/11/22 00:08:27;;;;;;;19.13;12.38;;;4.60;99.90;;;;;;4917510;29;20055;-83
2022/11/22 00:10:52;;;;;;;22.20;12.90;;;4.60;99.90;;;;;;4916960;29;20044;-83
2022/11/22 00:13:18;;;;;;;20.10;12.40;;;4.60;99.90;;;;;;4917155;29;20046;-83
2022/11/22 00:15:44;;;;;;;21.48;12.90;;;4.70;99.90;;;;;;4916971;29;20048;-83
2022/11/22 00:18:11;;;;;;;20.23;12.48;;;4.60;99.90;;;;;;4918070;29;20052;-83
2022/11/22 00:20:36;;;;;;;20.10;12.88;;;4.60;99.90;;;;;;4916566;29;20112;-83
2022/11/22 00:23:02;;;;;;;21.55;12.30;;;4.60;99.90;;;;;;4917264;29;20051;-83
2022/11/22 00:25:28;;;;;;;18.83;11.90;;;4.70;99.90;;;;;;4916021;29;20044;-83
2022/11/22 00:27:54;;;;;;;20.63;12.32;;;4.60;99.90;;;;;;4917295;29;20055;-83
2022/11/22 00:30:20;;;;;;;21.80;12.18;;;4.70;99.90;;;;;;4917719;29;20604;-83
2022/11/22 00:32:46;;;;;;;17.90;11.40;;;4.70;99.90;;;;;;4916051;29;20056;-82
2022/11/22 00:35:12;;;;;;;19.38;12.30;;;4.70;99.90;;;;;;4916526;29;20035;-82
2022/11/22 00:37:37;;;;;;;20.48;12.27;;;4.70;99.90;;;;;;4917618;29;20131;-83
2022/11/22 00:40:05;;;;;;;20.77;12.77;;;4.60;99.90;;;;;;4915580;29;20052;-83
2022/11/22 00:42:30;;;;;;;18.77;11.77;;;4.60;99.90;;;;;;4915688;29;20404;-83
2022/11/22 00:44:56;;;;;;;18.40;11.45;;;4.60;99.90;;;;;;4915910;29;20036;-82
2022/11/22 00:47:22;;;;;;;18.85;11.95;;;4.60;99.90;;;;;;4916803;29;20135;-83
2022/11/22 00:49:47;;;;;;;19.67;12.20;;;4.60;99.90;;;;;;4917615;29;20050;-83
2022/11/22 00:52:13;;;;;;;18.88;11.68;;;4.70;99.90;;;;;;4915985;29;20144;-83
2022/11/22 00:54:39;;;;;;;19.27;11.60;;;4.70;99.90;;;;;;4916047;29;20186;-83
2022/11/22 00:57:04;;;;;;;18.83;12.02;;;4.60;99.90;;;;;;4916677;29;20111;-83
2022/11/22 00:59:30;;;;;;;16.85;11.63;;;4.60;99.90;;;;;;4915461;29;20055;-83
2022/11/22 01:01:55;;;;;;;20.15;12.07;;;4.60;99.90;;;;;;4916107;29;20099;-83
2022/11/22 01:04:21;;;;;;;17.88;11.52;;;4.70;99.90;;;;;;4915484;29;20083;-83
2022/11/22 01:06:47;;;;;;;17.77;11.63;;;4.60;99.90;;;;;;4917185;29;20119;-83
2022/11/22 01:09:18;;;;;;;18.00;11.77;;;4.70;99.90;;;;;;4914912;29;20040;-83
2022/11/22 01:11:44;;;;;;;16.60;10.80;;;4.60;99.90;;;;;;4909349;29;20040;-84
2022/11/22 01:14:09;;;;;;;18.70;11.65;;;4.60;99.90;;;;;;4915994;29;20048;-83
2022/11/22 01:16:35;;;;;;;19.85;11.90;;;4.60;99.90;;;;;;4914842;29;20044;-83
2022/11/22 01:19:00;;;;;;;18.23;11.85;;;4.60;99.90;;;;;;4916664;29;20044;-83
2022/11/22 01:21:26;;;;;;;20.48;12.38;;;4.60;99.90;;;;;;4915333;29;20493;-84
2022/11/22 01:23:52;;;;;;;17.95;11.85;;;4.60;99.90;;;;;;4915507;29;20135;-83
2022/11/22 01:26:17;;;;;;;17.00;11.48;;;4.60;99.90;;;;;;4914846;29;20048;-83
2022/11/22 01:28:43;;;;;;;18.63;11.75;;;4.60;99.90;;;;;;4916111;29;20090;-83
2022/11/22 01:31:09;;;;;;;17.33;11.38;;;4.60;99.90;;;;;;4915705;29;20040;-83
2022/11/22 01:33:34;;;;;;;19.27;12.45;;;4.60;99.90;;;;;;4916828;29;20091;-83
2022/11/22 01:36:00;;;;;;;19.92;12.02;;;4.60;99.90;;;;;;4916614;29;20103;-83
2022/11/22 01:38:26;;;;;;;19.83;12.85;;;4.60;99.90;;;;;;4914935;29;20213;-83
2022/11/22 01:40:52;;;;;;;19.58;12.05;;;4.60;99.90;;;;;;4916465;29;20059;-83
2022/11/22 01:43:23;;;;;;;19.80;11.90;;;4.60;99.90;;;;;;4914602;29;20596;-82
2022/11/22 01:45:59;;;;;;;18.45;12.05;;;4.60;99.90;;;;;;4914641;29;20385;-83
2022/11/22 01:48:34;;;;;;;18.73;11.75;;;4.60;99.90;;;;;;4915817;29;20052;-83
2022/11/22 01:51:05;;;;;;;20.25;11.95;;;4.60;99.90;;;;;;4915085;29;20142;-83
2022/11/22 01:53:37;;;;;;;18.38;11.80;;;4.60;99.90;;;;;;4916353;29;20067;-83
2022/11/22 01:56:07;;;;;;;20.80;11.85;;;4.60;99.90;;;;;;4915901;29;20160;-83
2022/11/22 01:58:35;;;;;;;17.73;11.07;;;4.60;99.90;;;;;;4915737;29;20067;-83
2022/11/22 02:01:01;;;;;;;17.35;11.38;;;4.60;99.90;;;;;;4914977;29;20071;-83
2022/11/22 02:03:31;;;;;;;17.25;11.70;;;4.60;99.90;;;;;;4915140;29;20054;-83
2022/11/22 02:05:56;;;;;;;17.23;11.68;;;4.60;99.90;;;;;;4914488;29;20071;-83
2022/11/22 02:08:28;;;;;;;19.70;12.52;;;4.60;99.90;;;;;;4914801;29;20079;-83
2022/11/22 02:10:55;;;;;;;19.88;12.27;;;4.60;99.90;;;;;;4914637;29;20078;-83
2022/11/22 02:13:22;;;;;;;21.73;12.50;;;4.60;99.90;;;;;;4914620;29;20048;-83
2022/11/22 02:15:50;;;;;;;21.05;11.95;;;4.60;99.90;;;;;;4916982;29;20056;-83
2022/11/22 02:18:16;;;;;;;18.55;12.05;;;4.60;99.90;;;;;;4914193;29;20095;-83
2022/11/22 02:20:42;;;;;;;20.67;12.40;;;4.60;99.90;;;;;;4916100;29;20075;-82
2022/11/22 02:23:20;;;;;;;21.08;12.38;;;4.60;99.90;;;;;;4912225;29;20086;-82
2022/11/22 02:25:51;;;;;;;18.15;11.55;;;4.60;99.90;;;;;;4915023;29;20078;-82
2022/11/22 02:28:17;;;;;;;18.33;12.13;;;4.60;99.90;;;;;;4916218;29;20043;-82
2022/11/22 02:30:43;;;;;;;20.48;12.05;;;4.60;99.90;;;;;;4914969;29;20047;-83
2022/11/22 02:33:09;;;;;;;17.70;11.52;;;4.60;99.90;;;;;;4915564;29;20068;-82
2022/11/22 02:35:34;;;;;;;23.13;13.07;;;4.60;99.90;;;;;;4915251;29;20131;-83
2022/11/22 02:38:07;;;;;;;20.63;12.35;;;4.60;99.90;;;;;;4916123;29;20048;-82
2022/11/22 02:40:42;;;;;;;21.08;12.38;;;4.60;99.90;;;;;;4915132;29;20044;-82
2022/11/22 02:43:13;;;;;;;18.77;11.77;;;4.60;99.90;;;;;;4912611;29;20044;-82
2022/11/22 02:45:39;;;;;;;18.40;11.85;;;4.60;99.90;;;;;;4914771;29;20036;-82
2022/11/22 02:48:10;;;;;;;20.10;11.82;;;4.60;99.90;;;;;;4914180;29;20040;-82
2022/11/22 02:50:36;;;;;;;19.92;12.27;;;4.60;99.90;;;;;;4909703;29;20039;-83
2022/11/22 02:53:03;;;;;;;17.98;11.35;;;4.60;99.90;;;;;;4914037;29;20369;-83
2022/11/22 02:55:29;;;;;;;19.35;11.57;;;4.60;99.90;;;;;;4913970;29;20059;-82
2022/11/22 02:57:55;;;;;;;17.48;11.70;;;4.60;99.90;;;;;;4918098;29;20400;-82
2022/11/22 03:00:21;;;;;;;22.08;12.73;;;4.60;99.90;;;;;;4919179;29;20801;-83
2022/11/22 03:02:47;;;;;;;18.30;11.80;;;4.60;99.90;;;;;;4919439;29;20056;-82
2022/11/22 03:05:12;;;;;;;18.33;11.80;;;4.60;99.90;;;;;;4918176;29;20032;-82
2022/11/22 03:07:38;;;;;;;18.48;11.75;;;4.60;99.90;;;;;;4917509;29;20633;-82
2022/11/22 03:10:04;;;;;;;17.90;12.68;;;4.60;99.90;;;;;;4919172;29;20040;-82
2022/11/22 03:12:29;;;;;;;21.10;13.18;;;4.60;99.90;;;;;;4918851;29;20048;-82
2022/11/22 03:14:55;;;;;;;22.00;12.85;;;4.60;99.90;;;;;;4916679;29;20048;-82
2022/11/22 03:17:21;;;;;;;17.60;10.93;;;4.70;99.90;;;;;;4917658;29;20044;-82
2022/11/22 03:19:46;;;;;;;19.50;12.43;;;4.70;99.90;;;;;;4918407;29;20056;-82
2022/11/22 03:22:12;;;;;;;17.45;11.75;;;4.60;99.90;;;;;;4917730;29;20055;-82
2022/11/22 03:24:38;;;;;;;17.83;11.48;;;4.60;99.90;;;;;;4917957;29;20044;-83
2022/11/22 03:27:04;;;;;;;17.15;11.40;;;4.70;99.90;;;;;;4917561;29;20044;-82
2022/11/22 03:29:29;;;;;;;20.35;12.75;;;4.60;99.90;;;;;;4916825;29;20044;-82
2022/11/22 03:31:55;;;;;;;20.92;13.00;;;4.60;99.90;;;;;;4917687;29;20090;-83
2022/11/22 03:34:20;;;;;;;18.40;11.45;;;4.60;99.90;;;;;;4916926;29;20400;-83
2022/11/22 03:36:46;;;;;;;20.65;13.25;;;4.60;99.90;;;;;;4918210;29;20059;-82
2022/11/22 03:39:12;;;;;;;19.38;12.30;;;4.70;99.90;;;;;;4918759;29;20036;-83
2022/11/22 03:41:37;;;;;;;19.55;12.00;;;4.70;99.90;;;;;;4917216;29;20047;-82
2022/11/22 03:44:03;;;;;;;18.33;12.15;;;4.70;99.90;;;;;;4917846;29;20036;-82
2022/11/22 03:46:29;;;;;;;17.67;11.27;;;4.70;99.90;;;;;;4916307;29;20079;-82
2022/11/22 03:48:54;;;;;;;19.90;12.63;;;4.70;99.90;;;;;;4916260;29;20044;-82
2022/11/22 03:51:20;;;;;;;20.70;12.15;;;4.70;99.90;;;;;;4916072;29;20108;-83
2022/11/22 03:53:45;;;;;;;18.70;11.98;;;4.70;99.90;;;;;;4917790;29;20040;-82
2022/11/22 03:56:11;;;;;;;19.55;13.18;;;4.70;99.90;;;;;;4917431;29;20052;-83
2022/11/22 03:58:37;;;;;;;18.20;11.57;;;4.70;99.90;;;;;;4916304;29;20123;-83
2022/11/22 04:01:02;;;;;;;23.02;12.40;;;4.70;99.90;;;;;;4918146;29;20048;-83
2022/11/22 04:03:28;;;;;;;20.92;12.07;;;4.70;99.90;;;;;;4916504;29;20056;-83
2022/11/22 04:05:54;;;;;;;17.05;11.35;;;4.70;99.90;;;;;;4918704;29;20100;-82
2022/11/22 04:08:19;;;;;;;16.63;11.32;;;4.70;99.90;;;;;;4917194;29;20036;-82
2022/11/22 04:10:48;;;;;;;18.40;12.50;;;4.80;99.90;;;;;;4917399;29;20091;-82
2022/11/22 04:13:14;;;;;;;17.83;11.45;;;4.80;99.90;;;;;;4916627;29;20055;-82
2022/11/22 04:15:40;;;;;;;20.05;12.63;;;4.80;99.90;;;;;;4916820;29;20484;-83
2022/11/22 04:18:09;;;;;;;19.92;12.07;;;4.80;99.90;;;;;;4916929;29;20048;-83
2022/11/22 04:23:22;;;;;;;18.75;12.20;;;4.80;99.90;;;;;;4914363;29;20116;-82
2022/11/22 04:25:50;;;;;;;18.70;12.32;;;4.80;99.90;;;;;;4916350;29;20102;-83
2022/11/22 04:28:18;;;;;;;17.33;11.85;;;4.80;99.90;;;;;;4917510;29;20039;-83
2022/11/22 04:33:29;;;;;;;20.90;11.70;;;4.80;99.90;;;;;;4915652;29;20084;-83
2022/11/22 04:35:54;;;;;;;18.00;10.70;;;4.80;99.90;;;;;;4917999;29;20087;-83
2022/11/22 04:38:21;;;;;;;17.02;11.43;;;4.80;99.90;;;;;;4917573;29;20036;-83
2022/11/22 04:40:46;;;;;;;16.05;11.23;;;4.80;99.90;;;;;;4915787;29;20432;-83
2022/11/22 04:46:07;;;;;;;18.42;11.77;;;4.90;99.90;;;;;;4916255;29;20127;-83
2022/11/22 04:48:33;;;;;;;17.30;10.95;;;4.90;99.90;;;;;;4916593;29;20123;-83
2022/11/22 04:53:44;;;;;;;17.42;11.00;;;4.90;99.90;;;;;;4915846;29;20198;-83
2022/11/22 04:56:10;;;;;;;15.35;10.68;;;4.90;99.90;;;;;;4917708;29;20068;-84
2022/11/22 04:58:36;;;;;;;15.20;10.63;;;4.90;99.90;;;;;;4932041;29;20044;-84
2022/11/22 05:01:02;;;;;;;20.02;10.63;;;5.00;99.90;;;;;;4915484;29;20047;-83
2022/11/22 05:03:27;;;;;;;14.82;10.77;;;5.00;99.90;;;;;;4916276;29;20103;-83
2022/11/22 05:05:53;;;;;;;16.70;10.43;;;5.00;99.90;;;;;;4916377;29;20047;-83
2022/11/22 05:08:19;;;;;;;15.05;10.50;;;5.00;99.90;;;;;;4913142;29;20468;-83
2022/11/22 05:10:56;;;;;;;15.48;10.32;;;5.00;99.90;;;;;;4915704;29;20047;-83
2022/11/22 05:13:32;;;;;;;14.50;9.68;;;5.00;99.90;;;;;;4916008;29;20444;-84
2022/11/22 05:16:00;;;;;;;18.65;10.63;;;5.00;99.90;;;;;;4916640;29;20048;-84
2022/11/22 05:18:27;;;;;;;13.32;9.35;;;5.00;99.90;;;;;;4914976;29;20296;-84
2022/11/22 05:20:53;;;;;;;19.33;11.50;;;5.10;99.90;;;;;;4913905;29;20071;-84
2022/11/22 05:26:05;;;;;;;18.60;10.65;;;5.10;99.90;;;;;;4913696;29;20050;-86
2022/11/22 05:28:32;;;;;;;15.40;10.07;;;5.10;99.90;;;;;;4914676;29;20056;-86
2022/11/22 05:30:58;;;;;;;15.30;9.52;;;5.10;99.90;;;;;;4919938;29;20100;-84
2022/11/22 05:33:24;;;;;;;15.73;11.23;;;5.10;99.90;;;;;;4915232;29;20044;-89
2022/11/22 05:35:50;;;;;;;20.92;11.55;;;5.10;99.90;;;;;;4915508;29;20048;-90
2022/11/22 05:38:18;;;;;;;16.05;10.80;;;5.10;99.90;;;;;;4917425;29;20123;-90
2022/11/22 05:40:43;;;;;;;16.33;10.50;;;5.20;99.90;;;;;;4916272;29;20393;-90
2022/11/22 05:43:09;;;;;;;16.10;10.27;;;5.10;99.90;;;;;;4915919;29;20080;-84
2022/11/22 05:45:35;;;;;;;16.02;9.98;;;5.20;99.90;;;;;;4915608;29;20039;-85
2022/11/22 05:48:00;;;;;;;18.02;11.55;;;5.20;99.90;;;;;;4916401;29;20539;-85
2022/11/22 05:50:26;;;;;;;17.52;9.70;;;5.20;99.90;;;;;;4904052;29;20052;-84
2022/11/22 05:52:52;;;;;;;18.80;9.95;;;5.20;99.90;;;;;;4916689;29;20405;-86
2022/11/22 05:55:21;;;;;;;20.30;11.38;;;5.20;99.90;;;;;;4915606;29;20067;-85
2022/11/22 05:57:46;;;;;;;16.40;9.60;;;5.20;99.90;;;;;;4916339;29;20052;-85
2022/11/22 06:00:12;;;;;;;15.82;10.45;;;5.20;99.90;;;;;;4915517;29;20048;-85
2022/11/22 06:02:39;;;;;;;14.02;9.65;;;5.20;99.90;;;;;;4911791;29;20055;-83
2022/11/22 06:05:07;;;;;;;19.48;9.30;;;5.20;99.90;;;;;;4916487;29;20067;-84
2022/11/22 06:07:32;;;;;;;22.73;12.73;;;5.20;99.90;;;;;;4917029;29;20091;-83
2022/11/22 06:09:58;;;;;;;18.92;11.32;;;5.20;99.90;;;;;;4914268;29;20464;-83
2022/11/22 06:12:24;;;;;;;23.20;14.32;;;5.30;99.90;;;;;;4915652;29;20036;-84
2022/11/22 06:14:49;;;;;;;15.55;10.43;;;5.30;99.90;;;;;;4913900;29;20516;-83
2022/11/22 06:17:15;;;;;;;14.45;8.77;;;5.30;99.90;;;;;;4912990;29;20048;-83
2022/11/22 06:19:41;;;;;;;21.23;10.35;;;5.30;99.90;;;;;;4914291;29;20052;-83
2022/11/22 06:22:07;;;;;;;13.63;8.98;;;5.30;99.90;;;;;;4914868;29;20504;-84
2022/11/22 06:24:33;;;;;;;20.48;11.70;;;5.30;99.90;;;;;;4914376;29;20045;-84
2022/11/22 06:26:59;;;;;;;23.30;11.98;;;5.30;99.90;;;;;;4916370;29;20066;-85
2022/11/22 06:29:25;;;;;;;20.17;10.63;;;5.30;99.90;;;;;;4914131;29;20088;-85
2022/11/22 06:31:50;;;;;;;15.82;9.85;;;5.40;99.90;;;;;;4915280;29;20040;-84
2022/11/22 06:34:16;;;;;;;22.80;11.02;;;5.40;99.90;;;;;;4917539;29;20076;-85
2022/11/22 06:36:41;;;;;;;16.08;9.43;;;5.40;99.90;;;;;;4919356;29;20048;-85
2022/11/22 06:39:10;;;;;;;15.25;8.90;;;5.40;99.90;;;;;;4917846;29;20045;-85
2022/11/22 06:41:36;;;;;;;17.92;9.63;;;5.40;99.90;;;;;;4919887;29;20048;-85
2022/11/22 06:44:07;;;;;;;17.05;9.90;;;5.50;99.90;;;;;;4919653;29;20048;-85
2022/11/22 06:46:33;;;;;;;18.27;9.70;;;5.50;99.90;;;;;;4918209;29;20040;-86
2022/11/22 06:48:59;;;;;;;18.83;10.00;;;5.50;99.90;;;;;;4919874;29;20403;-85
2022/11/22 06:51:27;;;;;;;14.88;9.18;;;5.50;99.90;;;;;;4917451;29;20044;-85
2022/11/22 06:53:54;;;;;;;19.13;9.73;;;5.50;99.90;;;;;;4904520;29;20052;-85
2022/11/22 06:56:25;;;;;;;17.40;9.65;;;5.50;99.90;;;;;;4934530;29;20066;-85
2022/11/22 06:58:52;;;;;;;19.33;9.35;;;5.50;99.90;;;;;;4933269;29;20048;-85
2022/11/22 07:01:26;;;;;;;15.63;8.00;;;5.50;99.90;;;;;;4892835;23;20060;-85
2022/11/22 07:03:59;;;;;;;16.60;8.43;;;5.60;99.90;;;;;;4880569;29;20056;-86
2022/11/22 07:06:27;;;;;;;20.17;8.80;;;5.50;99.90;;;;;;4879515;29;20048;-84
2022/11/22 07:08:52;;;;;;;16.40;7.60;;;5.50;99.90;;;;;;4880342;29;20049;-85
2022/11/22 07:11:20;;;;;;;17.27;8.23;;;5.50;99.90;;;;;;4880661;29;20401;-86
2022/11/22 07:13:47;;;;;;;14.55;7.25;;;5.50;99.90;;;;;;4879795;29;20055;-86
2022/11/22 07:16:15;;;;;;;14.88;7.47;;;5.50;99.90;;;;;;4880240;29;20056;-84
2022/11/22 07:18:41;;;;;;;16.55;8.02;;;5.50;99.90;;;;;;4880514;29;20045;-84
2022/11/22 07:21:10;;;;;;;16.63;7.47;;;5.50;99.90;;;;;;4879565;29;20092;-85
2022/11/22 07:23:37;;;;;;;19.48;7.63;;;5.60;99.90;;;;;;4880730;29;20505;-85
2022/11/22 07:26:03;;;;;;;13.98;7.30;;;5.50;99.90;;;;;;4880201;29;20494;-85
2022/11/22 07:28:28;;;;;;;13.63;6.93;;;5.60;99.90;;;;;;4880434;29;20073;-87
2022/11/22 07:30:59;;;;;;;15.05;6.90;;;5.60;99.90;;;;;;4881038;29;20069;-83
2022/11/22 07:33:25;;;;;;;15.98;6.95;;;5.60;99.90;;;;;;4881130;29;20037;-84
2022/11/22 07:35:52;;;;;;;17.40;6.85;;;5.50;99.90;;;;;;4879171;29;20056;-85
2022/11/22 07:38:18;;;;;;;12.30;6.35;;;5.60;99.90;;;;;;4880770;29;20045;-85
2022/11/22 07:40:44;;;;;;;11.68;6.18;;;5.50;99.90;;;;;;4881183;29;20048;-84
2022/11/22 07:43:09;;;;;;;12.98;5.93;;;5.50;99.90;;;;;;4877941;29;20053;-85
2022/11/22 07:45:35;;;;;;;14.77;6.30;;;5.50;99.90;;;;;;4879864;29;20189;-83
2022/11/22 07:48:01;;;;;;;13.73;5.75;;;5.50;99.90;;;;;;4879899;29;20489;-84
2022/11/22 07:50:27;;;;;;;18.10;6.53;;;5.50;99.90;;;;;;4880186;29;20155;-84
2022/11/22 07:52:57;;;;;;;12.32;5.40;;;5.50;99.90;;;;;;4878631;29;20172;-84
2022/11/22 07:55:24;;;;;;;13.80;5.75;;;5.50;99.90;;;;;;4878231;29;20439;-86
2022/11/22 07:57:51;;;;;;;16.40;5.70;;;5.50;99.90;;;;;;4879690;29;20049;-84
2022/11/22 08:00:17;;;;;;;10.85;5.38;;;5.50;99.90;;;;;;4880191;29;20118;-84
2022/11/22 08:02:43;;;;;;;14.07;5.60;;;5.50;99.90;;;;;;4878442;29;20060;-83
2022/11/22 08:05:09;;;;;;;17.58;5.20;;;5.50;99.90;;;;;;4881022;29;20052;-84
2022/11/22 08:07:34;;;;;;;14.88;5.43;;;5.50;99.90;;;;;;4880468;29;20044;-87
2022/11/22 08:10:00;;;;;;;15.68;5.25;;;5.50;99.90;;;;;;4879920;29;20041;-83
2022/11/22 08:12:26;;;;;;;16.27;5.38;;;5.50;99.90;;;;;;4879200;29;20381;-87
2022/11/22 08:14:51;;;;;;;13.40;4.72;;;5.50;99.90;;;;;;4879089;29;20040;-86
2022/11/22 08:17:17;;;;;;;16.17;5.07;;;5.50;99.90;;;;;;4877711;29;20052;-86
2022/11/22 08:19:42;;;;;;;15.50;5.03;;;5.50;99.90;;;;;;4879334;29;20041;-85
2022/11/22 08:22:08;;;;;;;14.98;4.75;;;5.50;99.90;;;;;;4880459;29;20044;-85
2022/11/22 08:24:33;;;;;;;14.10;4.70;;;5.50;99.90;;;;;;4879766;29;20536;-87
2022/11/22 08:26:59;;;;;;;20.17;4.75;;;5.50;99.90;;;;;;4880163;29;20055;-86
2022/11/22 08:29:25;;;;;;;14.45;4.45;;;5.40;99.90;;;;;;4877650;29;20053;-85
2022/11/22 08:31:50;;;;;;;16.00;4.75;;;5.40;99.90;;;;;;4879684;29;20041;-86
2022/11/22 08:34:16;;;;;;;16.00;4.40;;;5.40;99.90;;;;;;4878408;29;20068;-86
2022/11/22 08:36:41;;;;;;;17.48;4.45;;;5.40;99.90;;;;;;4880056;29;20053;-86
2022/11/22 08:39:07;;;;;;;11.25;4.30;;;5.40;99.90;;;;;;4878888;29;20136;-86
2022/11/22 08:41:32;;;;;;;10.55;3.78;;;5.50;99.90;;;;;;4880124;29;20041;-86
2022/11/22 08:43:58;;;;;;;12.13;3.90;;;5.50;99.90;;;;;;4879332;29;20441;-86
2022/11/22 08:46:24;;;;;;;11.75;4.10;;;5.40;99.90;;;;;;4877998;29;20040;-86
2022/11/22 08:48:51;;;;;;;13.27;4.18;;;5.50;99.90;;;;;;4878721;29;20053;-86
2022/11/22 08:51:17;;;;;;;12.93;3.50;;;5.50;99.90;;;;;;4878941;29;20045;-86
2022/11/22 08:53:43;;;;;;;13.75;3.30;;;5.50;99.90;;;;;;4879258;29;20088;-86
2022/11/22 08:56:13;;;;;;;13.82;3.95;;;5.50;99.90;;;;;;4876912;29;20053;-86
2022/11/22 08:58:39;;;;;;;10.85;3.65;;;5.50;99.90;;;;;;4878927;29;20041;-86
2022/11/22 09:01:15;;;;;;;11.23;3.53;;;5.50;99.90;;;;;;4877028;29;20045;-86
2022/11/22 09:03:42;;;;;;;18.15;3.88;;;5.50;99.90;;;;;;4879606;29;20397;-86
2022/11/22 09:06:11;;;;;;;16.30;3.88;;;5.50;99.90;;;;;;4876859;29;20060;-86
2022/11/22 09:08:36;;;;;;;12.15;3.15;;;5.50;99.90;;;;;;4876954;29;20052;-86
2022/11/22 09:11:07;;;;;;;16.88;3.83;;;5.60;99.90;;;;;;4877959;29;20048;-88
2022/11/22 09:13:33;;;;;;;15.15;3.72;;;5.60;99.90;;;;;;4874433;29;20405;-85
2022/11/22 09:16:03;;;;;;;14.50;4.03;;;5.60;99.90;;;;;;4874355;29;20049;-83
2022/11/22 09:18:29;;;;;;;16.67;3.53;;;5.70;99.90;;;;;;4873525;29;20049;-83
2022/11/22 09:20:59;;;;;;;17.25;3.20;;;5.70;99.90;;;;;;4876789;29;20045;-84
2022/11/22 09:23:25;;;;;;;13.90;3.15;;;5.70;99.90;;;;;;4878843;29;20052;-82
2022/11/22 09:26:04;;;;;;;16.85;3.25;;;5.70;99.90;;;;;;4878053;29;20041;-82
2022/11/22 09:28:30;;;;;;;14.35;3.00;;;5.70;99.90;;;;;;4876751;29;20051;-84
2022/11/22 09:31:00;;;;;;;12.43;2.88;;;5.80;99.90;;;;;;4877795;29;20119;-85
2022/11/22 09:33:26;;;;;;;19.88;3.22;;;5.80;99.90;;;;;;4879009;29;20065;-84
2022/11/22 09:36:01;;;;;;;17.00;3.42;;;5.80;99.90;;;;;;4876373;29;20049;-85
2022/11/22 09:38:28;;;;;;;15.52;3.47;;;5.80;99.90;;;;;;4877355;29;20045;-86
2022/11/22 09:40:54;;;;;;;15.93;3.10;;;5.90;99.90;;;;;;4877072;29;20084;-85
2022/11/22 09:43:47;;;;;;;12.93;3.30;;;5.90;99.90;;;;;;4878133;29;20495;-86
2022/11/22 09:46:23;;;;;;;14.40;2.97;;;5.90;99.90;;;;;;4877505;29;20052;-85
2022/11/22 09:49:04;;;;;;;12.60;2.70;;;5.90;99.90;;;;;;4877810;29;20041;-84
2022/11/22 09:51:40;;;;;;;14.20;2.83;;;5.90;99.90;;;;;;4878905;29;20045;-85
2022/11/22 09:54:17;;;;;;;14.70;3.00;;;5.90;99.90;;;;;;4878219;29;20068;-85
2022/11/22 09:56:43;;;;;;;13.38;2.75;;;5.90;99.90;;;;;;4876047;29;20045;-84
2022/11/22 09:59:17;;;;;;;9.23;2.08;;;6.00;99.90;;;;;;4877603;29;20068;-86
2022/11/22 10:01:49;;;;;;;13.55;2.70;;;6.00;99.90;;;;;;4877238;29;20576;-85
2022/11/22 10:04:23;;;;;;;13.93;2.47;;;6.00;99.90;;;;;;4876906;29;20145;-86
2022/11/22 10:07:09;;;;;;;9.38;2.53;;;6.00;99.90;;;;;;4876287;29;20097;-86
2022/11/22 10:09:39;;;;;;;13.38;2.90;;;6.00;99.90;;;;;;4876730;29;20072;-86
2022/11/22 10:12:22;;;;;;;15.23;2.50;;;6.10;99.90;;;;;;4877060;29;20053;-86
2022/11/22 10:14:51;;;;;;;;;;;6.10;99.90;;;;;;4876696;29;20053;-84
2022/11/22 10:17:22;;;;;;;12.38;2.15;;;6.00;99.90;;;;;;4876348;29;19923;-85
2022/11/22 10:20:01;;;;;;;12.98;2.65;;;6.10;99.90;;;;;;4877874;29;20049;-84
2022/11/22 10:22:29;;;;;;;13.65;2.53;;;6.10;99.90;;;;;;4877446;29;20514;-86
2022/11/22 10:24:58;;;;;;;12.38;2.22;;;6.10;99.90;;;;;;4877054;29;20060;-84
2022/11/22 10:27:29;;;;;;;11.52;2.20;;;6.20;99.90;;;;;;4878765;29;20057;-85
2022/11/22 10:30:12;;;;;;;13.13;2.40;;;6.20;99.90;;;;;;4878246;29;20473;-85
2022/11/22 10:32:51;;;;;;;11.85;2.60;;;6.20;99.90;;;;;;4871242;29;20140;-85
2022/11/22 10:35:47;;;;;;;12.30;2.42;;;6.30;99.90;;;;;;4876716;29;20135;-84
2022/11/22 10:38:34;;;;;;;8.73;2.40;;;6.30;99.90;;;;;;4874639;29;20049;-84
2022/11/22 10:41:17;;;;;;;10.38;2.17;;;6.30;99.90;;;;;;4869564;29;20045;-85
2022/11/22 10:44:18;;;;;;;11.10;2.17;;;6.40;99.90;;;;;;4877279;29;20049;-85
2022/11/22 10:47:09;;;;;;;10.98;2.60;;;6.40;99.90;;;;;;4876843;29;20053;-85
2022/11/22 10:49:38;;;;;;;12.05;2.22;;;6.40;99.90;;;;;;4870644;29;20041;-86
2022/11/22 10:52:18;;;;;;;13.40;2.53;;;6.50;99.90;;;;;;4876010;29;20041;-86
2022/11/22 10:54:50;;;;;;;12.25;2.42;;;6.60;99.90;;;;;;4875840;29;20049;-84
2022/11/22 10:57:50;;;;;;;10.20;2.22;;;6.60;99.90;;;;;;4877935;29;20508;-85
2022/11/22 11:00:20;;;;;;;8.68;2.55;;;6.70;99.90;;;;;;4876199;29;20148;-84
2022/11/22 11:03:00;;;;;;;11.20;2.35;;;6.70;99.90;;;;;;4877929;29;20057;-85
2022/11/22 11:05:49;;;;;;;13.23;2.30;;;6.70;99.90;;;;;;4875274;29;20041;-85
2022/11/22 11:08:38;;;;;;;10.55;2.20;;;6.80;99.90;;;;;;4876564;29;20060;-85
2022/11/22 11:11:04;;;;;;;11.25;2.30;;;6.80;99.90;;;;;;4877445;29;20132;-85
2022/11/22 11:13:53;;;;;;;10.82;1.98;;;6.80;99.90;;;;;;4876344;29;20663;-85
2022/11/22 11:16:23;;;;;;;13.60;2.50;;;6.90;99.90;;;;;;4875222;29;20041;-85
2022/11/22 11:18:53;;;;;;;14.13;2.33;;;6.90;99.90;;;;;;4871534;29;20053;-85
2022/11/22 11:21:18;;;;;;;12.13;2.30;;;6.90;99.90;;;;;;4882705;29;20101;-85
2022/11/22 11:23:44;;;;;;;13.30;2.30;;;6.90;99.90;;;;;;4881359;29;20426;-86
2022/11/22 11:26:26;;;;;;;12.10;2.28;;;7.00;99.90;;;;;;4878437;29;20041;-85
2022/11/22 11:29:17;;;;;;;11.60;2.08;;;7.00;99.90;;;;;;4879640;29;20057;-87
2022/11/22 11:31:45;;;;;;;9.45;1.90;;;7.00;99.90;;;;;;4876896;29;20045;-87
2022/11/22 11:34:29;;;;;;;7.80;2.00;;;7.00;99.90;;;;;;4879312;29;20045;-85
2022/11/22 11:43:28;;;;;;;10.07;1.70;;;7.00;99.90;;;;;;4951028;23;20511;-86
2022/11/22 11:46:13;;;;;;;9.77;2.20;;;7.00;99.90;;;;;;4917358;29;20048;-87
2022/11/22 11:48:42;;;;;;;8.73;1.77;;;7.00;99.90;;;;;;4916490;29;20058;-86
2022/11/22 11:51:17;;;;;;;13.38;2.45;;;7.00;99.90;;;;;;4915259;29;20044;-88
2022/11/22 11:53:52;;;;;;;7.20;1.60;;;7.10;99.90;;;;;;4916292;29;20491;-87
2022/11/22 11:56:32;;;;;;;10.10;1.83;;;7.10;99.90;;;;;;4915505;29;20036;-87
2022/11/22 11:59:02;;;;;;;9.85;1.75;;;7.10;99.90;;;;;;4917490;29;20084;-87
2022/11/22 12:01:28;;;;;;;10.27;2.13;;;7.10;99.90;;;;;;4911525;29;20525;-86
2022/11/22 12:03:57;;;;;;;7.30;2.08;;;7.20;99.90;;;;;;4901551;29;20063;-87
2022/11/22 12:06:28;;;;;;;9.32;1.98;;;7.20;99.90;;;;;;4911890;29;20600;-86
2022/11/22 12:08:56;;;;;;;9.82;1.75;;;7.20;99.90;;;;;;4916052;29;20099;-86
2022/11/22 12:11:45;;;;;;;9.23;1.98;;;7.20;99.90;;;;;;4916144;29;20131;-86
2022/11/22 12:14:15;;;;;;;8.25;1.83;;;7.20;99.90;;;;;;4910402;29;20494;-86
2022/11/22 12:16:46;;;;;;;7.63;1.80;;;7.30;99.90;;;;;;4915887;29;20419;-83
2022/11/22 12:19:56;;;;;;;9.50;1.80;;;7.20;99.90;;;;;;4917476;29;20048;-84
2022/11/22 12:22:48;;;;;;;6.78;1.73;;;7.30;99.90;;;;;;4899337;29;20476;-84
2022/11/22 12:25:37;;;;;;;8.88;1.77;;;7.30;99.90;;;;;;4921520;23;20056;-84
2022/11/22 12:28:17;;;;;;;9.60;2.03;;;7.30;99.90;;;;;;4898293;29;20057;-85
2022/11/22 12:30:45;;;;;;;10.48;1.88;;;7.30;99.90;;;;;;4894999;29;20131;-84
2022/11/22 12:33:19;;;;;;;7.65;1.67;;;7.30;99.90;;;;;;4896987;29;20052;-84
2022/11/22 12:35:45;;;;;;;7.47;1.60;;;7.40;99.90;;;;;;4897647;29;20484;-84
2022/11/22 12:38:19;;;;;;;10.65;1.70;;;7.30;99.90;;;;;;4895384;29;20060;-84
2022/11/22 12:40:48;;;;;;;;;;;7.40;99.90;;;;;;4896412;29;20083;-83
2022/11/22 12:43:26;;;;;;;11.25;1.90;;;7.30;99.90;;;;;;4897682;29;19931;-83
2022/11/22 12:45:55;;;;;;;8.57;1.80;;;7.40;99.90;;;;;;4880985;29;20056;-83
2022/11/22 12:48:39;;;;;;;9.82;1.80;;;7.40;99.90;;;;;;4917110;23;20143;-83
2022/11/22 12:51:14;;;;;;;9.80;1.85;;;7.40;99.90;;;;;;4902917;29;20392;-82
2022/11/22 12:53:43;;;;;;;6.28;1.35;;;7.40;99.90;;;;;;4915715;29;20087;-84
2022/11/22 12:56:08;;;;;;;8.07;1.77;;;7.40;99.90;;;;;;4914836;29;20126;-84
2022/11/22 12:59:08;;;;;;;8.43;1.75;;;7.40;99.90;;;;;;4916586;29;20143;-83
2022/11/22 13:01:51;;;;;;;7.90;1.50;;;7.50;99.90;;;;;;4899834;29;20068;-84
2022/11/22 13:04:57;;;;;;;9.50;1.88;;;7.40;99.90;;;;;;4911121;29;20039;-84
2022/11/22 13:07:39;;;;;;;11.40;1.90;;;7.40;99.90;;;;;;4909222;29;20484;-84
2022/11/22 13:10:16;;;;;;;10.10;1.80;;;7.40;99.90;;;;;;4916326;29;20072;-84
2022/11/22 13:12:44;;;;;;;6.65;1.70;;;7.40;99.90;;;;;;4916792;29;20134;-84
2022/11/22 13:15:18;;;;;;;8.50;1.70;;;7.40;99.90;;;;;;4918528;29;20074;-84